Aeroporto :
LOGIN :

Iscrizione | Disclaimer

   EN    FR    IT 

 










Sommario :    VFR   VFR Marginale   IFR   IFR Intensivo   IFR Molto Intensivo
Visibilità : 
Base nubi : 
>= 8 km
>= 3000ft
5 / 8 km
1000 / 3000 ft
1500m / 5 km
500 / 1000 ft
800 / 1500m
200 / 500 ft
< 800m
< 200 ft
Simboli :   Temporali  Nebbia  Neve Forte  Precipitazioni Forti  Vento > 20 kt
SIGMETs :   Varie  Temporali  Ghiacco  Turbolenza  Onda orograficha  Ceneri Vulcaniche






- Altitudine del aeroporto : 42 ft
- Codice IATA : KGD


UMKK - Khrabrava - Kaliningrad

ULTIMO METAR :
  • 090630Z 25010MPS CAVOK 13/06 Q1014 R24/95D NOSIG RMK QFE759/1013

METARs OBSOLETI :
  • 090600Z 24006MPS CAVOK 12/06 Q1014 R24/29//95 NOSIG RMK QFE759/1013
  • 090530Z 23006MPS CAVOK 12/06 Q1014 R24/CLRD95 NOSIG RMK QFE760/1013
  • 090500Z 23006MPS CAVOK 12/04 Q1014 R24/CLRD95 NOSIG RMK QFE760/1013
  • 090430Z 22005MPS CAVOK 12/03 Q1014 R24/CLRD95 NOSIG RMK QFE760/1013
  • 090400Z 22006MPS CAVOK 11/03 Q1015 R24/CLRD95 NOSIG RMK QFE760/1013

TAF TAF UMKK
Valido dal 09 a 06 ore il 10 a 06 ore UTC


090457Z 0906/1006 25006G12MPS 9999 SCT040
TEMPO 0906/0909 4000 -RA BKN011
BECMG 0909/0911 29008G14MPS BKN030
TEMPO 0912/0918 32007G12MPS SCT011 BKN020
BECMG 0918/0920 28003G08MPS SCT011
TEMPO 0920/1006 3100 BR FEW003



MetMap, La meteo Aeronautica in un colpo d'occhio ! - Copyright ORBIFLY Dicembre 2007 - Disclaimer

ORBIFLY MET'MAP TEAM :

Programmazione e sviluppo : Alexandra Zaïnal
Concezione : Baudouin d'Aumeries
Aiuto per la programmazione : Marc-Olivier Méhu
Supporto tecnico e logistico : Manuel Goepfert
Aiuto per la traduzione : Arnaldo La Scala

Contatto : metmap@orbifly.com




FONTI E CREDITI :

   NOAA